sensor_id;sensor_type;location;lat;lon;timestamp;P1;durP1;ratioP1;P2;durP2;ratioP2
21501;SDS011;27639;48.674;9.242;2022-10-16T00:01:15;4.55;;;2.15;;
21501;SDS011;27639;48.674;9.242;2022-10-16T00:03:43;3.97;;;2.17;;
21501;SDS011;27639;48.674;9.242;2022-10-16T00:06:10;5.15;;;2.80;;
21501;SDS011;27639;48.674;9.242;2022-10-16T00:08:37;7.72;;;2.00;;
21501;SDS011;27639;48.674;9.242;2022-10-16T00:11:14;4.75;;;1.90;;
21501;SDS011;27639;48.674;9.242;2022-10-16T00:13:42;5.53;;;1.90;;
21501;SDS011;27639;48.674;9.242;2022-10-16T00:16:09;3.53;;;1.83;;
21501;SDS011;27639;48.674;9.242;2022-10-16T00:18:36;4.28;;;2.40;;
21501;SDS011;27639;48.674;9.242;2022-10-16T00:21:09;5.93;;;2.15;;
21501;SDS011;27639;48.674;9.242;2022-10-16T00:23:37;4.57;;;2.20;;
21501;SDS011;27639;48.674;9.242;2022-10-16T00:26:04;3.78;;;2.10;;
21501;SDS011;27639;48.674;9.242;2022-10-16T00:28:32;4.20;;;1.80;;
21501;SDS011;27639;48.674;9.242;2022-10-16T00:30:58;5.32;;;2.00;;
21501;SDS011;27639;48.674;9.242;2022-10-16T00:33:24;3.72;;;1.67;;
21501;SDS011;27639;48.674;9.242;2022-10-16T00:35:49;5.18;;;1.73;;
21501;SDS011;27639;48.674;9.242;2022-10-16T00:38:15;4.07;;;2.38;;
21501;SDS011;27639;48.674;9.242;2022-10-16T00:40:41;4.85;;;2.28;;
21501;SDS011;27639;48.674;9.242;2022-10-16T00:43:14;4.38;;;1.85;;
21501;SDS011;27639;48.674;9.242;2022-10-16T00:46:20;3.50;;;1.80;;
21501;SDS011;27639;48.674;9.242;2022-10-16T00:49:08;5.30;;;1.80;;
21501;SDS011;27639;48.674;9.242;2022-10-16T00:51:37;3.45;;;1.98;;
21501;SDS011;27639;48.674;9.242;2022-10-16T00:54:09;5.82;;;2.00;;
21501;SDS011;27639;48.674;9.242;2022-10-16T00:56:55;4.22;;;2.10;;
21501;SDS011;27639;48.674;9.242;2022-10-16T00:59:27;4.68;;;1.90;;
21501;SDS011;27639;48.674;9.242;2022-10-16T01:01:55;4.05;;;2.20;;
21501;SDS011;27639;48.674;9.242;2022-10-16T01:04:22;3.65;;;1.98;;
21501;SDS011;27639;48.674;9.242;2022-10-16T01:09:47;3.80;;;2.08;;
21501;SDS011;27639;48.674;9.242;2022-10-16T01:12:23;5.28;;;1.80;;
21501;SDS011;27639;48.674;9.242;2022-10-16T01:20:18;5.68;;;2.42;;
21501;SDS011;27639;48.674;9.242;2022-10-16T01:23:01;5.05;;;2.20;;
21501;SDS011;27639;48.674;9.242;2022-10-16T01:25:49;4.20;;;2.03;;
21501;SDS011;27639;48.674;9.242;2022-10-16T01:28:28;3.88;;;1.90;;
21501;SDS011;27639;48.674;9.242;2022-10-16T01:31:25;4.90;;;1.92;;
21501;SDS011;27639;48.674;9.242;2022-10-16T01:34:37;4.63;;;2.10;;
21501;SDS011;27639;48.674;9.242;2022-10-16T01:36:47;3.72;;;1.75;;
21501;SDS011;27639;48.674;9.242;2022-10-16T01:39:21;4.03;;;1.77;;
21501;SDS011;27639;48.674;9.242;2022-10-16T01:42:13;3.63;;;2.10;;
21501;SDS011;27639;48.674;9.242;2022-10-16T01:44:38;3.25;;;1.83;;
21501;SDS011;27639;48.674;9.242;2022-10-16T01:47:07;2.78;;;1.75;;
21501;SDS011;27639;48.674;9.242;2022-10-16T01:49:35;3.65;;;2.00;;
21501;SDS011;27639;48.674;9.242;2022-10-16T01:52:05;4.85;;;2.20;;
21501;SDS011;27639;48.674;9.242;2022-10-16T01:54:33;5.40;;;2.30;;
21501;SDS011;27639;48.674;9.242;2022-10-16T01:57:02;4.53;;;2.30;;
21501;SDS011;27639;48.674;9.242;2022-10-16T01:59:31;4.68;;;1.92;;
21501;SDS011;27639;48.674;9.242;2022-10-16T02:02:01;3.92;;;2.10;;
21501;SDS011;27639;48.674;9.242;2022-10-16T02:07:19;5.18;;;2.20;;
21501;SDS011;27639;48.674;9.242;2022-10-16T02:09:45;5.03;;;2.40;;
21501;SDS011;27639;48.674;9.242;2022-10-16T02:12:30;3.80;;;2.10;;
21501;SDS011;27639;48.674;9.242;2022-10-16T02:14:58;3.63;;;2.13;;
21501;SDS011;27639;48.674;9.242;2022-10-16T02:17:23;5.80;;;2.30;;
21501;SDS011;27639;48.674;9.242;2022-10-16T02:19:50;4.40;;;2.50;;
21501;SDS011;27639;48.674;9.242;2022-10-16T02:22:41;3.70;;;2.15;;
21501;SDS011;27639;48.674;9.242;2022-10-16T02:25:12;6.00;;;2.00;;
21501;SDS011;27639;48.674;9.242;2022-10-16T02:30:41;5.43;;;2.05;;
21501;SDS011;27639;48.674;9.242;2022-10-16T02:33:15;5.38;;;2.10;;
21501;SDS011;27639;48.674;9.242;2022-10-16T02:35:43;4.30;;;2.25;;
21501;SDS011;27639;48.674;9.242;2022-10-16T02:38:11;5.05;;;2.17;;
21501;SDS011;27639;48.674;9.242;2022-10-16T02:40:38;5.13;;;2.35;;
21501;SDS011;27639;48.674;9.242;2022-10-16T02:43:04;6.18;;;2.33;;
21501;SDS011;27639;48.674;9.242;2022-10-16T02:45:31;5.20;;;2.58;;
21501;SDS011;27639;48.674;9.242;2022-10-16T02:47:57;4.63;;;2.10;;
21501;SDS011;27639;48.674;9.242;2022-10-16T02:50:23;4.45;;;2.13;;
21501;SDS011;27639;48.674;9.242;2022-10-16T02:52:50;5.18;;;2.15;;
21501;SDS011;27639;48.674;9.242;2022-10-16T02:55:15;5.43;;;2.28;;
21501;SDS011;27639;48.674;9.242;2022-10-16T02:57:41;6.28;;;2.20;;
21501;SDS011;27639;48.674;9.242;2022-10-16T03:00:07;6.60;;;2.53;;
21501;SDS011;27639;48.674;9.242;2022-10-16T03:02:37;6.03;;;2.45;;
21501;SDS011;27639;48.674;9.242;2022-10-16T03:05:03;4.60;;;2.25;;
21501;SDS011;27639;48.674;9.242;2022-10-16T03:07:29;4.18;;;2.30;;
21501;SDS011;27639;48.674;9.242;2022-10-16T03:09:54;5.03;;;2.20;;
21501;SDS011;27639;48.674;9.242;2022-10-16T03:12:20;4.25;;;2.45;;
21501;SDS011;27639;48.674;9.242;2022-10-16T03:14:46;5.50;;;2.28;;
21501;SDS011;27639;48.674;9.242;2022-10-16T03:17:12;5.40;;;2.10;;
21501;SDS011;27639;48.674;9.242;2022-10-16T03:19:38;3.47;;;2.08;;
21501;SDS011;27639;48.674;9.242;2022-10-16T03:22:03;4.68;;;2.40;;
21501;SDS011;27639;48.674;9.242;2022-10-16T03:24:29;6.80;;;2.13;;
21501;SDS011;27639;48.674;9.242;2022-10-16T03:26:55;5.47;;;2.30;;
21501;SDS011;27639;48.674;9.242;2022-10-16T03:29:20;3.80;;;1.95;;
21501;SDS011;27639;48.674;9.242;2022-10-16T03:31:46;6.57;;;2.10;;
21501;SDS011;27639;48.674;9.242;2022-10-16T03:34:13;4.13;;;2.45;;
21501;SDS011;27639;48.674;9.242;2022-10-16T03:36:39;6.75;;;2.33;;
21501;SDS011;27639;48.674;9.242;2022-10-16T03:39:04;4.18;;;2.03;;
21501;SDS011;27639;48.674;9.242;2022-10-16T03:41:30;4.72;;;1.80;;
21501;SDS011;27639;48.674;9.242;2022-10-16T03:43:55;3.85;;;2.30;;
21501;SDS011;27639;48.674;9.242;2022-10-16T03:46:21;5.72;;;2.20;;
21501;SDS011;27639;48.674;9.242;2022-10-16T03:48:47;4.95;;;2.20;;
21501;SDS011;27639;48.674;9.242;2022-10-16T03:51:12;4.50;;;1.98;;
21501;SDS011;27639;48.674;9.242;2022-10-16T03:53:38;5.32;;;2.08;;
21501;SDS011;27639;48.674;9.242;2022-10-16T03:56:03;6.07;;;2.40;;
21501;SDS011;27639;48.674;9.242;2022-10-16T03:58:29;4.90;;;2.13;;
21501;SDS011;27639;48.674;9.242;2022-10-16T04:00:55;4.10;;;2.25;;
21501;SDS011;27639;48.674;9.242;2022-10-16T04:03:20;4.15;;;2.08;;
21501;SDS011;27639;48.674;9.242;2022-10-16T04:05:46;3.83;;;2.22;;
21501;SDS011;27639;48.674;9.242;2022-10-16T04:08:12;4.85;;;2.25;;
21501;SDS011;27639;48.674;9.242;2022-10-16T04:10:37;5.00;;;2.50;;
21501;SDS011;27639;48.674;9.242;2022-10-16T04:13:03;4.15;;;2.22;;
21501;SDS011;27639;48.674;9.242;2022-10-16T04:15:28;4.57;;;2.30;;
21501;SDS011;27639;48.674;9.242;2022-10-16T04:17:54;5.93;;;2.35;;
21501;SDS011;27639;48.674;9.242;2022-10-16T04:20:20;5.18;;;2.42;;
21501;SDS011;27639;48.674;9.242;2022-10-16T04:22:45;5.50;;;2.10;;
21501;SDS011;27639;48.674;9.242;2022-10-16T04:25:11;4.35;;;2.50;;
21501;SDS011;27639;48.674;9.242;2022-10-16T04:27:37;6.97;;;2.15;;
21501;SDS011;27639;48.674;9.242;2022-10-16T04:30:03;4.35;;;2.08;;
21501;SDS011;27639;48.674;9.242;2022-10-16T04:32:29;6.47;;;2.50;;
21501;SDS011;27639;48.674;9.242;2022-10-16T04:34:55;4.72;;;2.60;;
21501;SDS011;27639;48.674;9.242;2022-10-16T04:37:24;3.40;;;2.30;;
21501;SDS011;27639;48.674;9.242;2022-10-16T04:39:50;5.25;;;2.33;;
21501;SDS011;27639;48.674;9.242;2022-10-16T04:42:16;4.80;;;2.40;;
21501;SDS011;27639;48.674;9.242;2022-10-16T04:44:41;3.88;;;2.40;;
21501;SDS011;27639;48.674;9.242;2022-10-16T04:47:07;5.82;;;2.13;;
21501;SDS011;27639;48.674;9.242;2022-10-16T04:49:33;3.53;;;2.05;;
21501;SDS011;27639;48.674;9.242;2022-10-16T04:51:58;4.28;;;2.40;;
21501;SDS011;27639;48.674;9.242;2022-10-16T04:54:24;5.03;;;2.50;;
21501;SDS011;27639;48.674;9.242;2022-10-16T04:56:49;4.05;;;2.40;;
21501;SDS011;27639;48.674;9.242;2022-10-16T04:59:17;3.88;;;2.25;;
21501;SDS011;27639;48.674;9.242;2022-10-16T05:01:44;5.78;;;2.60;;
21501;SDS011;27639;48.674;9.242;2022-10-16T05:04:09;5.65;;;2.65;;
21501;SDS011;27639;48.674;9.242;2022-10-16T05:06:35;6.03;;;2.90;;
21501;SDS011;27639;48.674;9.242;2022-10-16T05:09:02;4.05;;;2.50;;
21501;SDS011;27639;48.674;9.242;2022-10-16T05:11:27;4.03;;;2.22;;
21501;SDS011;27639;48.674;9.242;2022-10-16T05:13:53;5.68;;;2.58;;
21501;SDS011;27639;48.674;9.242;2022-10-16T05:16:18;6.40;;;2.55;;
21501;SDS011;27639;48.674;9.242;2022-10-16T05:18:44;4.40;;;2.53;;
21501;SDS011;27639;48.674;9.242;2022-10-16T05:21:10;5.50;;;2.47;;
21501;SDS011;27639;48.674;9.242;2022-10-16T05:23:35;5.80;;;2.67;;
21501;SDS011;27639;48.674;9.242;2022-10-16T05:26:01;5.55;;;2.90;;
21501;SDS011;27639;48.674;9.242;2022-10-16T05:28:29;4.63;;;2.47;;
21501;SDS011;27639;48.674;9.242;2022-10-16T05:30:55;5.10;;;2.40;;
21501;SDS011;27639;48.674;9.242;2022-10-16T05:33:22;4.80;;;2.72;;
21501;SDS011;27639;48.674;9.242;2022-10-16T05:35:49;4.63;;;2.60;;
21501;SDS011;27639;48.674;9.242;2022-10-16T05:38:18;4.93;;;2.88;;
21501;SDS011;27639;48.674;9.242;2022-10-16T05:40:50;5.57;;;2.55;;
21501;SDS011;27639;48.674;9.242;2022-10-16T05:43:21;6.30;;;2.75;;
21501;SDS011;27639;48.674;9.242;2022-10-16T05:45:53;5.30;;;2.83;;
21501;SDS011;27639;48.674;9.242;2022-10-16T05:48:23;7.88;;;3.20;;
21501;SDS011;27639;48.674;9.242;2022-10-16T05:50:56;5.18;;;2.80;;
21501;SDS011;27639;48.674;9.242;2022-10-16T05:53:23;6.22;;;3.72;;
21501;SDS011;27639;48.674;9.242;2022-10-16T05:55:56;4.47;;;2.80;;
21501;SDS011;27639;48.674;9.242;2022-10-16T05:58:23;4.85;;;2.90;;
21501;SDS011;27639;48.674;9.242;2022-10-16T06:00:53;6.30;;;3.05;;
21501;SDS011;27639;48.674;9.242;2022-10-16T06:03:27;5.00;;;2.75;;
21501;SDS011;27639;48.674;9.242;2022-10-16T06:05:53;5.32;;;2.85;;
21501;SDS011;27639;48.674;9.242;2022-10-16T06:08:19;4.10;;;2.67;;
21501;SDS011;27639;48.674;9.242;2022-10-16T06:10:47;5.80;;;2.80;;
21501;SDS011;27639;48.674;9.242;2022-10-16T06:13:13;5.55;;;2.67;;
21501;SDS011;27639;48.674;9.242;2022-10-16T06:15:39;5.40;;;2.78;;
21501;SDS011;27639;48.674;9.242;2022-10-16T06:18:09;6.47;;;3.15;;
21501;SDS011;27639;48.674;9.242;2022-10-16T06:20:35;5.18;;;2.90;;
21501;SDS011;27639;48.674;9.242;2022-10-16T06:23:02;5.30;;;2.90;;
21501;SDS011;27639;48.674;9.242;2022-10-16T06:25:29;5.13;;;2.88;;
21501;SDS011;27639;48.674;9.242;2022-10-16T06:27:55;5.18;;;2.90;;
21501;SDS011;27639;48.674;9.242;2022-10-16T06:30:20;4.82;;;2.83;;
21501;SDS011;27639;48.674;9.242;2022-10-16T06:32:46;5.00;;;2.88;;
21501;SDS011;27639;48.674;9.242;2022-10-16T06:35:12;4.78;;;3.25;;
21501;SDS011;27639;48.674;9.242;2022-10-16T06:37:37;10.88;;;3.53;;
21501;SDS011;27639;48.674;9.242;2022-10-16T06:40:03;6.90;;;3.67;;
21501;SDS011;27639;48.674;9.242;2022-10-16T06:42:29;4.72;;;3.75;;
21501;SDS011;27639;48.674;9.242;2022-10-16T06:44:55;5.82;;;3.38;;
21501;SDS011;27639;48.674;9.242;2022-10-16T06:47:20;4.82;;;3.03;;
21501;SDS011;27639;48.674;9.242;2022-10-16T06:49:46;5.10;;;3.42;;
21501;SDS011;27639;48.674;9.242;2022-10-16T06:52:12;5.22;;;3.00;;
21501;SDS011;27639;48.674;9.242;2022-10-16T06:54:37;5.43;;;2.78;;
21501;SDS011;27639;48.674;9.242;2022-10-16T06:57:03;7.10;;;3.35;;
21501;SDS011;27639;48.674;9.242;2022-10-16T06:59:28;5.68;;;3.20;;
21501;SDS011;27639;48.674;9.242;2022-10-16T07:01:54;6.93;;;3.80;;
21501;SDS011;27639;48.674;9.242;2022-10-16T07:04:19;8.95;;;3.70;;
21501;SDS011;27639;48.674;9.242;2022-10-16T07:06:45;6.10;;;3.50;;
21501;SDS011;27639;48.674;9.242;2022-10-16T07:09:11;5.18;;;2.95;;
21501;SDS011;27639;48.674;9.242;2022-10-16T07:11:37;5.55;;;3.15;;
21501;SDS011;27639;48.674;9.242;2022-10-16T07:14:04;7.15;;;3.40;;
21501;SDS011;27639;48.674;9.242;2022-10-16T07:16:37;9.45;;;3.70;;
21501;SDS011;27639;48.674;9.242;2022-10-16T07:19:02;5.20;;;3.40;;
21501;SDS011;27639;48.674;9.242;2022-10-16T07:21:29;5.53;;;3.50;;
21501;SDS011;27639;48.674;9.242;2022-10-16T07:24:00;5.65;;;4.18;;
21501;SDS011;27639;48.674;9.242;2022-10-16T07:26:26;5.70;;;3.15;;
21501;SDS011;27639;48.674;9.242;2022-10-16T07:28:53;5.25;;;3.35;;
21501;SDS011;27639;48.674;9.242;2022-10-16T07:31:19;6.13;;;3.50;;
21501;SDS011;27639;48.674;9.242;2022-10-16T07:33:46;5.68;;;3.63;;
21501;SDS011;27639;48.674;9.242;2022-10-16T07:36:13;4.85;;;3.90;;
21501;SDS011;27639;48.674;9.242;2022-10-16T07:38:40;10.32;;;6.45;;
21501;SDS011;27639;48.674;9.242;2022-10-16T07:41:08;8.35;;;5.65;;
21501;SDS011;27639;48.674;9.242;2022-10-16T07:43:40;8.48;;;5.22;;
21501;SDS011;27639;48.674;9.242;2022-10-16T07:46:10;7.72;;;4.10;;
21501;SDS011;27639;48.674;9.242;2022-10-16T07:48:35;7.68;;;5.15;;
21501;SDS011;27639;48.674;9.242;2022-10-16T07:51:02;8.27;;;5.50;;
21501;SDS011;27639;48.674;9.242;2022-10-16T07:53:29;7.47;;;4.68;;
21501;SDS011;27639;48.674;9.242;2022-10-16T07:55:59;5.80;;;3.88;;
21501;SDS011;27639;48.674;9.242;2022-10-16T07:58:31;5.30;;;3.92;;
21501;SDS011;27639;48.674;9.242;2022-10-16T08:00:58;7.25;;;3.65;;
21501;SDS011;27639;48.674;9.242;2022-10-16T08:03:24;7.50;;;3.50;;
21501;SDS011;27639;48.674;9.242;2022-10-16T08:05:50;5.90;;;3.60;;
21501;SDS011;27639;48.674;9.242;2022-10-16T08:08:16;7.05;;;3.75;;
21501;SDS011;27639;48.674;9.242;2022-10-16T08:10:43;5.15;;;3.58;;
21501;SDS011;27639;48.674;9.242;2022-10-16T08:13:09;4.68;;;3.28;;
21501;SDS011;27639;48.674;9.242;2022-10-16T08:15:34;5.72;;;3.70;;
21501;SDS011;27639;48.674;9.242;2022-10-16T08:18:03;7.53;;;3.35;;
21501;SDS011;27639;48.674;9.242;2022-10-16T08:20:30;6.85;;;3.60;;
21501;SDS011;27639;48.674;9.242;2022-10-16T08:22:56;6.90;;;3.53;;
21501;SDS011;27639;48.674;9.242;2022-10-16T08:25:22;5.47;;;3.25;;
21501;SDS011;27639;48.674;9.242;2022-10-16T08:27:48;4.78;;;3.33;;
21501;SDS011;27639;48.674;9.242;2022-10-16T08:30:14;9.38;;;5.45;;
21501;SDS011;27639;48.674;9.242;2022-10-16T08:32:41;7.40;;;4.68;;
21501;SDS011;27639;48.674;9.242;2022-10-16T08:35:07;5.88;;;4.05;;
21501;SDS011;27639;48.674;9.242;2022-10-16T08:37:37;5.53;;;3.97;;
21501;SDS011;27639;48.674;9.242;2022-10-16T08:40:04;5.95;;;3.50;;
21501;SDS011;27639;48.674;9.242;2022-10-16T08:42:38;5.68;;;4.25;;
21501;SDS011;27639;48.674;9.242;2022-10-16T08:50:42;5.28;;;3.00;;
21501;SDS011;27639;48.674;9.242;2022-10-16T08:53:14;6.10;;;2.60;;
21501;SDS011;27639;48.674;9.242;2022-10-16T08:55:50;5.55;;;3.08;;
21501;SDS011;27639;48.674;9.242;2022-10-16T08:58:18;6.85;;;2.47;;
21501;SDS011;27639;48.674;9.242;2022-10-16T09:00:50;3.80;;;1.90;;
21501;SDS011;27639;48.674;9.242;2022-10-16T09:11:14;4.80;;;2.10;;
21501;SDS011;27639;48.674;9.242;2022-10-16T09:17:32;6.68;;;2.50;;
21501;SDS011;27639;48.674;9.242;2022-10-16T09:23:17;4.40;;;1.30;;
21501;SDS011;27639;48.674;9.242;2022-10-16T09:25:43;3.22;;;1.73;;
21501;SDS011;27639;48.674;9.242;2022-10-16T09:28:12;2.53;;;1.20;;
21501;SDS011;27639;48.674;9.242;2022-10-16T09:30:38;3.55;;;1.13;;
21501;SDS011;27639;48.674;9.242;2022-10-16T09:33:04;2.95;;;1.45;;
21501;SDS011;27639;48.674;9.242;2022-10-16T09:35:44;3.10;;;1.40;;
21501;SDS011;27639;48.674;9.242;2022-10-16T09:38:48;2.78;;;1.50;;
21501;SDS011;27639;48.674;9.242;2022-10-16T09:43:59;3.60;;;1.42;;
21501;SDS011;27639;48.674;9.242;2022-10-16T09:46:28;3.75;;;1.48;;
21501;SDS011;27639;48.674;9.242;2022-10-16T09:48:59;3.65;;;1.40;;
21501;SDS011;27639;48.674;9.242;2022-10-16T09:51:44;3.83;;;1.52;;
21501;SDS011;27639;48.674;9.242;2022-10-16T09:54:14;4.70;;;2.50;;
21501;SDS011;27639;48.674;9.242;2022-10-16T10:01:51;4.68;;;1.73;;
21501;SDS011;27639;48.674;9.242;2022-10-16T10:04:22;4.10;;;1.40;;
21501;SDS011;27639;48.674;9.242;2022-10-16T10:06:49;3.22;;;1.30;;
21501;SDS011;27639;48.674;9.242;2022-10-16T10:11:56;2.75;;;1.25;;
21501;SDS011;27639;48.674;9.242;2022-10-16T10:19:42;3.40;;;1.50;;
21501;SDS011;27639;48.674;9.242;2022-10-16T10:22:25;3.88;;;1.23;;
21501;SDS011;27639;48.674;9.242;2022-10-16T10:24:55;2.60;;;1.20;;
21501;SDS011;27639;48.674;9.242;2022-10-16T10:27:21;3.58;;;1.40;;
21501;SDS011;27639;48.674;9.242;2022-10-16T10:32:26;3.33;;;1.00;;
21501;SDS011;27639;48.674;9.242;2022-10-16T10:35:07;2.58;;;1.30;;
21501;SDS011;27639;48.674;9.242;2022-10-16T10:41:14;2.97;;;1.10;;
21501;SDS011;27639;48.674;9.242;2022-10-16T10:44:18;5.03;;;1.27;;
21501;SDS011;27639;48.674;9.242;2022-10-16T10:50:05;2.40;;;1.10;;
21501;SDS011;27639;48.674;9.242;2022-10-16T10:58:24;5.07;;;1.10;;
21501;SDS011;27639;48.674;9.242;2022-10-16T11:01:12;3.83;;;1.20;;
21501;SDS011;27639;48.674;9.242;2022-10-16T11:03:54;3.72;;;1.20;;
21501;SDS011;27639;48.674;9.242;2022-10-16T11:09:12;2.40;;;1.00;;
21501;SDS011;27639;48.674;9.242;2022-10-16T11:11:51;3.47;;;0.90;;
21501;SDS011;27639;48.674;9.242;2022-10-16T11:14:33;2.38;;;1.00;;
21501;SDS011;27639;48.674;9.242;2022-10-16T11:17:04;5.90;;;1.00;;
21501;SDS011;27639;48.674;9.242;2022-10-16T11:19:55;2.70;;;0.95;;
21501;SDS011;27639;48.674;9.242;2022-10-16T11:22:29;2.45;;;0.90;;
21501;SDS011;27639;48.674;9.242;2022-10-16T11:27:40;4.20;;;1.20;;
21501;SDS011;27639;48.674;9.242;2022-10-16T11:35:37;3.13;;;1.00;;
21501;SDS011;27639;48.674;9.242;2022-10-16T11:38:15;2.58;;;1.20;;
21501;SDS011;27639;48.674;9.242;2022-10-16T11:40:57;3.92;;;1.10;;
21501;SDS011;27639;48.674;9.242;2022-10-16T11:43:28;2.95;;;1.17;;
21501;SDS011;27639;48.674;9.242;2022-10-16T11:45:55;3.95;;;1.05;;
21501;SDS011;27639;48.674;9.242;2022-10-16T11:48:31;3.65;;;0.98;;
21501;SDS011;27639;48.674;9.242;2022-10-16T11:56:19;2.67;;;1.00;;
21501;SDS011;27639;48.674;9.242;2022-10-16T11:59:00;3.08;;;0.98;;
21501;SDS011;27639;48.674;9.242;2022-10-16T12:01:41;2.25;;;1.05;;
21501;SDS011;27639;48.674;9.242;2022-10-16T12:06:53;3.42;;;1.30;;
21501;SDS011;27639;48.674;9.242;2022-10-16T12:09:26;2.67;;;1.10;;
21501;SDS011;27639;48.674;9.242;2022-10-16T12:11:56;3.72;;;1.40;;
21501;SDS011;27639;48.674;9.242;2022-10-16T12:17:04;4.03;;;1.27;;
21501;SDS011;27639;48.674;9.242;2022-10-16T12:19:59;3.78;;;1.15;;
21501;SDS011;27639;48.674;9.242;2022-10-16T12:22:37;3.22;;;1.13;;
21501;SDS011;27639;48.674;9.242;2022-10-16T12:25:22;2.30;;;1.20;;
21501;SDS011;27639;48.674;9.242;2022-10-16T12:27:57;2.78;;;1.30;;
21501;SDS011;27639;48.674;9.242;2022-10-16T12:30:42;4.22;;;1.20;;
21501;SDS011;27639;48.674;9.242;2022-10-16T12:33:24;3.40;;;1.23;;
21501;SDS011;27639;48.674;9.242;2022-10-16T12:35:52;2.85;;;1.15;;
21501;SDS011;27639;48.674;9.242;2022-10-16T12:38:19;2.78;;;1.50;;
21501;SDS011;27639;48.674;9.242;2022-10-16T12:41:04;3.35;;;1.35;;
21501;SDS011;27639;48.674;9.242;2022-10-16T12:43:40;4.25;;;1.30;;
21501;SDS011;27639;48.674;9.242;2022-10-16T12:48:33;4.05;;;1.50;;
21501;SDS011;27639;48.674;9.242;2022-10-16T12:54:37;3.47;;;1.20;;
21501;SDS011;27639;48.674;9.242;2022-10-16T13:05:43;2.92;;;1.30;;
21501;SDS011;27639;48.674;9.242;2022-10-16T13:18:51;3.03;;;1.50;;
21501;SDS011;27639;48.674;9.242;2022-10-16T13:24:36;3.10;;;1.30;;
21501;SDS011;27639;48.674;9.242;2022-10-16T13:27:26;2.92;;;1.38;;
21501;SDS011;27639;48.674;9.242;2022-10-16T13:32:46;4.53;;;1.30;;
21501;SDS011;27639;48.674;9.242;2022-10-16T13:35:25;4.05;;;1.38;;
21501;SDS011;27639;48.674;9.242;2022-10-16T13:40:53;3.95;;;1.30;;
21501;SDS011;27639;48.674;9.242;2022-10-16T13:43:34;2.58;;;1.27;;
21501;SDS011;27639;48.674;9.242;2022-10-16T13:48:32;2.78;;;1.23;;
21501;SDS011;27639;48.674;9.242;2022-10-16T13:51:03;4.15;;;1.30;;
21501;SDS011;27639;48.674;9.242;2022-10-16T13:53:35;2.97;;;1.20;;
21501;SDS011;27639;48.674;9.242;2022-10-16T13:56:02;2.40;;;1.25;;
21501;SDS011;27639;48.674;9.242;2022-10-16T13:58:29;3.40;;;1.40;;
21501;SDS011;27639;48.674;9.242;2022-10-16T14:00:56;3.13;;;1.30;;
21501;SDS011;27639;48.674;9.242;2022-10-16T14:03:23;3.15;;;1.42;;
21501;SDS011;27639;48.674;9.242;2022-10-16T14:05:51;3.72;;;1.55;;
21501;SDS011;27639;48.674;9.242;2022-10-16T14:08:20;2.67;;;1.40;;
21501;SDS011;27639;48.674;9.242;2022-10-16T14:10:47;3.00;;;1.38;;
21501;SDS011;27639;48.674;9.242;2022-10-16T14:13:16;2.80;;;1.20;;
21501;SDS011;27639;48.674;9.242;2022-10-16T14:15:46;3.45;;;1.50;;
21501;SDS011;27639;48.674;9.242;2022-10-16T14:18:18;3.45;;;1.45;;
21501;SDS011;27639;48.674;9.242;2022-10-16T14:20:48;4.97;;;1.75;;
21501;SDS011;27639;48.674;9.242;2022-10-16T14:25:48;3.90;;;1.40;;
21501;SDS011;27639;48.674;9.242;2022-10-16T14:28:18;3.47;;;1.40;;
21501;SDS011;27639;48.674;9.242;2022-10-16T14:30:55;2.75;;;1.30;;
21501;SDS011;27639;48.674;9.242;2022-10-16T14:33:32;3.03;;;1.38;;
21501;SDS011;27639;48.674;9.242;2022-10-16T14:36:00;3.15;;;1.40;;
21501;SDS011;27639;48.674;9.242;2022-10-16T14:38:36;3.03;;;1.38;;
21501;SDS011;27639;48.674;9.242;2022-10-16T14:41:04;3.78;;;1.60;;
21501;SDS011;27639;48.674;9.242;2022-10-16T14:43:34;3.60;;;1.50;;
21501;SDS011;27639;48.674;9.242;2022-10-16T14:46:16;5.43;;;1.50;;
21501;SDS011;27639;48.674;9.242;2022-10-16T14:48:47;4.60;;;1.60;;
21501;SDS011;27639;48.674;9.242;2022-10-16T14:51:18;3.75;;;1.73;;
21501;SDS011;27639;48.674;9.242;2022-10-16T14:53:45;3.30;;;1.27;;
21501;SDS011;27639;48.674;9.242;2022-10-16T14:56:16;3.72;;;1.60;;
21501;SDS011;27639;48.674;9.242;2022-10-16T14:58:47;5.95;;;1.83;;
21501;SDS011;27639;48.674;9.242;2022-10-16T15:01:14;5.28;;;1.80;;
21501;SDS011;27639;48.674;9.242;2022-10-16T15:03:40;4.03;;;1.70;;
21501;SDS011;27639;48.674;9.242;2022-10-16T15:06:12;3.85;;;1.40;;
21501;SDS011;27639;48.674;9.242;2022-10-16T15:08:39;4.05;;;1.40;;
21501;SDS011;27639;48.674;9.242;2022-10-16T15:11:05;4.18;;;1.50;;
21501;SDS011;27639;48.674;9.242;2022-10-16T15:13:38;5.88;;;1.67;;
21501;SDS011;27639;48.674;9.242;2022-10-16T15:16:04;3.17;;;1.77;;
21501;SDS011;27639;48.674;9.242;2022-10-16T15:18:37;7.15;;;1.70;;
21501;SDS011;27639;48.674;9.242;2022-10-16T15:21:02;2.78;;;1.30;;
21501;SDS011;27639;48.674;9.242;2022-10-16T15:23:28;4.82;;;1.58;;
21501;SDS011;27639;48.674;9.242;2022-10-16T15:25:54;5.05;;;1.40;;
21501;SDS011;27639;48.674;9.242;2022-10-16T15:28:21;3.75;;;1.90;;
21501;SDS011;27639;48.674;9.242;2022-10-16T15:30:51;5.45;;;1.65;;
21501;SDS011;27639;48.674;9.242;2022-10-16T15:33:23;4.65;;;1.40;;
21501;SDS011;27639;48.674;9.242;2022-10-16T15:38:19;3.72;;;1.42;;
21501;SDS011;27639;48.674;9.242;2022-10-16T15:40:46;4.20;;;1.60;;
21501;SDS011;27639;48.674;9.242;2022-10-16T15:43:15;4.63;;;1.70;;
21501;SDS011;27639;48.674;9.242;2022-10-16T15:45:41;5.30;;;1.98;;
21501;SDS011;27639;48.674;9.242;2022-10-16T15:48:09;2.85;;;1.40;;
21501;SDS011;27639;48.674;9.242;2022-10-16T15:50:37;3.03;;;1.52;;
21501;SDS011;27639;48.674;9.242;2022-10-16T15:53:03;3.53;;;1.63;;
21501;SDS011;27639;48.674;9.242;2022-10-16T15:55:29;5.18;;;1.55;;
21501;SDS011;27639;48.674;9.242;2022-10-16T15:57:54;5.25;;;1.40;;
21501;SDS011;27639;48.674;9.242;2022-10-16T16:00:21;3.50;;;1.60;;
21501;SDS011;27639;48.674;9.242;2022-10-16T16:02:50;3.35;;;1.38;;
21501;SDS011;27639;48.674;9.242;2022-10-16T16:05:17;4.30;;;1.60;;
21501;SDS011;27639;48.674;9.242;2022-10-16T16:07:43;4.57;;;1.55;;
21501;SDS011;27639;48.674;9.242;2022-10-16T16:10:09;5.30;;;1.30;;
21501;SDS011;27639;48.674;9.242;2022-10-16T16:12:35;4.93;;;1.58;;
21501;SDS011;27639;48.674;9.242;2022-10-16T16:15:02;4.30;;;1.60;;
21501;SDS011;27639;48.674;9.242;2022-10-16T16:17:31;4.55;;;1.80;;
21501;SDS011;27639;48.674;9.242;2022-10-16T16:19:58;3.33;;;1.80;;
21501;SDS011;27639;48.674;9.242;2022-10-16T16:22:23;5.30;;;2.00;;
21501;SDS011;27639;48.674;9.242;2022-10-16T16:24:49;3.25;;;1.50;;
21501;SDS011;27639;48.674;9.242;2022-10-16T16:27:14;3.05;;;1.88;;
21501;SDS011;27639;48.674;9.242;2022-10-16T16:29:40;3.40;;;1.77;;
21501;SDS011;27639;48.674;9.242;2022-10-16T16:32:06;4.00;;;1.70;;
21501;SDS011;27639;48.674;9.242;2022-10-16T16:34:31;7.75;;;2.75;;
21501;SDS011;27639;48.674;9.242;2022-10-16T16:36:57;3.05;;;1.90;;
21501;SDS011;27639;48.674;9.242;2022-10-16T16:39:22;3.97;;;1.95;;
21501;SDS011;27639;48.674;9.242;2022-10-16T16:41:49;4.55;;;2.28;;
21501;SDS011;27639;48.674;9.242;2022-10-16T16:44:15;5.57;;;2.05;;
21501;SDS011;27639;48.674;9.242;2022-10-16T16:46:41;5.00;;;2.30;;
21501;SDS011;27639;48.674;9.242;2022-10-16T16:49:09;5.03;;;2.30;;
21501;SDS011;27639;48.674;9.242;2022-10-16T16:51:39;4.70;;;2.67;;
21501;SDS011;27639;48.674;9.242;2022-10-16T16:54:06;6.38;;;2.40;;
21501;SDS011;27639;48.674;9.242;2022-10-16T16:56:32;6.40;;;2.70;;
21501;SDS011;27639;48.674;9.242;2022-10-16T16:59:14;5.47;;;2.17;;
21501;SDS011;27639;48.674;9.242;2022-10-16T17:01:42;4.07;;;2.13;;
21501;SDS011;27639;48.674;9.242;2022-10-16T17:04:08;6.18;;;2.38;;
21501;SDS011;27639;48.674;9.242;2022-10-16T17:06:39;5.18;;;2.60;;
21501;SDS011;27639;48.674;9.242;2022-10-16T17:09:06;7.50;;;2.50;;
21501;SDS011;27639;48.674;9.242;2022-10-16T17:11:32;6.82;;;2.60;;